createdAt,value
2023-03-28T00:01:08.757Z,8.30
2023-03-28T00:06:22.046Z,9.67
2023-03-28T00:08:51.391Z,9.77
2023-03-28T00:11:19.953Z,9.77
2023-03-28T00:14:00.601Z,9.93
2023-03-28T00:16:33.007Z,11.70
2023-03-28T00:19:01.102Z,10.03
2023-03-28T00:21:32.074Z,13.47
2023-03-28T00:24:06.655Z,12.30
2023-03-28T00:26:35.464Z,12.70
2023-03-28T00:29:03.488Z,9.10
2023-03-28T00:31:30.832Z,12.83
2023-03-28T00:33:57.733Z,13.43
2023-03-28T00:36:26.768Z,13.43
2023-03-28T00:38:54.221Z,18.10
2023-03-28T00:41:22.196Z,14.37
2023-03-28T00:43:50.895Z,13.47
2023-03-28T00:46:34.603Z,14.03
2023-03-28T00:49:12.350Z,17.67
2023-03-28T00:51:47.372Z,16.90
2023-03-28T00:54:17.325Z,13.13
2023-03-28T00:56:45.870Z,11.33
2023-03-28T00:59:14.088Z,12.87
2023-03-28T01:01:41.335Z,16.43
2023-03-28T01:04:10.940Z,15.33
2023-03-28T01:06:41.256Z,15.00
2023-03-28T01:09:08.207Z,16.97
2023-03-28T01:11:36.033Z,14.80
2023-03-28T01:14:07.515Z,14.60
2023-03-28T01:16:41.432Z,18.47
2023-03-28T01:19:13.786Z,18.00
2023-03-28T01:21:55.840Z,16.10
2023-03-28T01:24:37.669Z,17.47
2023-03-28T01:27:45.894Z,17.47
2023-03-28T01:30:31.654Z,16.33
2023-03-28T01:33:16.042Z,20.53
2023-03-28T01:35:48.616Z,20.17
2023-03-28T01:38:15.818Z,18.33
2023-03-28T01:41:12.166Z,16.57
2023-03-28T01:44:20.312Z,21.57
2023-03-28T01:46:56.030Z,21.73
2023-03-28T01:49:49.774Z,27.73
2023-03-28T01:52:38.757Z,19.73
2023-03-28T01:55:21.479Z,22.30
2023-03-28T01:58:11.413Z,24.07
2023-03-28T02:00:43.675Z,22.50
2023-03-28T02:03:12.063Z,21.03
2023-03-28T02:05:39.065Z,21.03
2023-03-28T02:08:08.471Z,23.63
2023-03-28T02:10:37.750Z,23.30
2023-03-28T02:13:09.686Z,25.93
2023-03-28T02:15:39.108Z,22.03
2023-03-28T02:18:13.610Z,23.27
2023-03-28T02:20:40.665Z,24.77
2023-03-28T02:23:11.025Z,24.93
2023-03-28T02:25:39.155Z,24.73
2023-03-28T02:28:07.300Z,25.27
2023-03-28T02:30:36.834Z,22.67
2023-03-28T02:33:10.132Z,25.03
2023-03-28T02:35:43.324Z,22.37
2023-03-28T02:38:28.961Z,23.30
2023-03-28T02:41:03.001Z,21.40
2023-03-28T02:44:04.088Z,26.63
2023-03-28T02:46:47.295Z,26.97
2023-03-28T02:49:50.375Z,21.67
2023-03-28T02:52:56.742Z,20.60
2023-03-28T02:55:45.013Z,21.43
2023-03-28T02:58:21.261Z,28.77
2023-03-28T03:00:48.850Z,18.87
2023-03-28T03:03:16.748Z,19.63
2023-03-28T03:05:44.022Z,23.47
2023-03-28T03:08:11.857Z,26.00
2023-03-28T03:10:38.673Z,24.83
2023-03-28T03:13:06.264Z,27.50
2023-03-28T03:15:35.633Z,23.07
2023-03-28T03:18:05.156Z,21.37
2023-03-28T03:20:34.722Z,28.13
2023-03-28T03:23:06.608Z,25.77
2023-03-28T03:25:34.545Z,23.70
2023-03-28T03:28:01.922Z,21.37
2023-03-28T03:30:28.773Z,23.33
2023-03-28T03:32:56.137Z,21.63
2023-03-28T03:35:23.462Z,24.00
2023-03-28T03:37:50.660Z,22.90
2023-03-28T03:40:18.777Z,23.67
2023-03-28T03:42:47.674Z,20.63
2023-03-28T03:45:15.820Z,23.13
2023-03-28T03:47:42.638Z,23.00
2023-03-28T03:50:10.040Z,20.27
2023-03-28T03:52:38.346Z,20.40
2023-03-28T03:55:06.483Z,23.13
2023-03-28T03:57:33.752Z,20.47
2023-03-28T04:00:02.158Z,25.00
2023-03-28T04:02:31.505Z,18.77
2023-03-28T04:04:59.881Z,19.47
2023-03-28T04:07:26.707Z,18.83
2023-03-28T04:09:53.475Z,20.00
2023-03-28T04:12:22.347Z,17.90
2023-03-28T04:14:51.353Z,19.17
2023-03-28T04:17:23.350Z,21.93
2023-03-28T04:19:50.309Z,22.83
2023-03-28T04:22:18.359Z,23.33
2023-03-28T04:24:45.880Z,19.90
2023-03-28T04:27:12.653Z,17.00
2023-03-28T04:29:41.749Z,21.97
2023-03-28T04:32:11.193Z,19.90
2023-03-28T04:34:39.075Z,20.27
2023-03-28T04:37:06.366Z,16.03
2023-03-28T04:39:35.793Z,22.67
2023-03-28T04:42:04.364Z,16.63
2023-03-28T04:44:35.590Z,21.63
2023-03-28T04:47:04.644Z,22.63
2023-03-28T04:49:34.240Z,19.40
2023-03-28T04:52:04.219Z,17.60
2023-03-28T04:54:31.045Z,24.47
2023-03-28T04:56:57.882Z,14.07
2023-03-28T04:59:27.347Z,18.70
2023-03-28T05:01:54.612Z,26.20
2023-03-28T05:04:26.682Z,23.40
2023-03-28T05:06:55.576Z,18.43
2023-03-28T05:09:22.877Z,21.87
2023-03-28T05:11:51.854Z,26.40
2023-03-28T05:14:19.102Z,16.53
2023-03-28T05:16:46.429Z,15.80
2023-03-28T05:19:13.971Z,18.87
2023-03-28T05:21:41.138Z,14.07
2023-03-28T05:24:08.678Z,21.20
2023-03-28T05:26:36.872Z,19.20
2023-03-28T05:29:04.187Z,14.57
2023-03-28T05:31:33.872Z,24.03
2023-03-28T05:34:02.936Z,21.50
2023-03-28T05:36:32.608Z,17.00
2023-03-28T05:38:59.403Z,23.67
2023-03-28T05:41:31.102Z,20.87
2023-03-28T05:43:58.259Z,17.27
2023-03-28T05:46:25.825Z,23.97
2023-03-28T05:48:53.156Z,21.43
2023-03-28T05:51:20.528Z,19.10
2023-03-28T05:53:47.603Z,18.77
2023-03-28T05:56:14.404Z,21.07
2023-03-28T05:58:41.705Z,23.53
2023-03-28T06:01:12.845Z,22.80
2023-03-28T06:03:42.624Z,25.97
2023-03-28T06:06:09.628Z,23.93
2023-03-28T06:08:39.262Z,28.03
2023-03-28T06:11:06.690Z,29.53
2023-03-28T06:13:33.925Z,29.37
2023-03-28T06:16:01.200Z,29.00
2023-03-28T06:18:28.431Z,22.53
2023-03-28T06:20:55.665Z,26.67
2023-03-28T06:23:22.904Z,23.97
2023-03-28T06:25:50.304Z,28.20
2023-03-28T06:28:17.155Z,28.93
2023-03-28T06:30:50.344Z,29.97
2023-03-28T06:33:17.125Z,28.10
2023-03-28T06:35:44.412Z,31.07
2023-03-28T06:38:11.321Z,29.23
2023-03-28T06:40:42.797Z,28.77
2023-03-28T06:43:10.017Z,24.00
2023-03-28T06:45:37.213Z,29.63
2023-03-28T06:48:04.509Z,25.27
2023-03-28T06:50:31.346Z,29.60
2023-03-28T06:52:58.184Z,31.33
2023-03-28T06:55:24.954Z,30.10
2023-03-28T06:57:54.169Z,29.40
2023-03-28T07:00:21.320Z,33.20
2023-03-28T07:02:50.839Z,30.73
2023-03-28T07:05:20.370Z,34.73
2023-03-28T07:07:49.815Z,35.10
2023-03-28T07:10:16.697Z,29.00
2023-03-28T07:12:43.528Z,31.70
2023-03-28T07:15:11.166Z,38.73
2023-03-28T07:17:40.447Z,27.47
2023-03-28T07:20:07.555Z,35.23
2023-03-28T07:22:34.752Z,30.17
2023-03-28T07:25:04.077Z,28.30
2023-03-28T07:27:30.907Z,24.43
2023-03-28T07:29:57.670Z,28.93
2023-03-28T07:32:24.517Z,22.50
2023-03-28T07:34:51.766Z,29.37
2023-03-28T07:37:18.552Z,28.03
2023-03-28T07:39:48.953Z,24.67
2023-03-28T07:42:15.961Z,30.07
2023-03-28T07:44:45.385Z,23.63
2023-03-28T07:47:12.734Z,24.43
2023-03-28T07:49:39.712Z,22.13
2023-03-28T07:52:07.016Z,21.03
2023-03-28T07:54:34.591Z,21.40
2023-03-28T07:57:01.882Z,25.80
2023-03-28T07:59:29.080Z,21.47
2023-03-28T08:01:56.402Z,24.30
2023-03-28T08:04:23.698Z,20.93
2023-03-28T08:06:53.286Z,24.23
2023-03-28T08:09:22.685Z,25.13
2023-03-28T08:11:51.617Z,20.50
2023-03-28T08:14:18.613Z,19.60
2023-03-28T08:16:45.798Z,22.80
2023-03-28T08:19:13.320Z,19.80
2023-03-28T08:21:40.257Z,17.87
2023-03-28T08:24:08.065Z,18.20
2023-03-28T08:26:35.389Z,19.73
2023-03-28T08:29:02.288Z,13.53
2023-03-28T08:31:29.633Z,15.00
2023-03-28T08:33:56.674Z,16.17
2023-03-28T08:36:24.495Z,15.63
2023-03-28T08:38:52.088Z,15.70
2023-03-28T08:41:19.252Z,10.87
2023-03-28T08:44:17.082Z,10.10
2023-03-28T08:46:44.396Z,11.37
2023-03-28T08:49:16.738Z,10.43
2023-03-28T08:51:59.353Z,10.83
2023-03-28T08:54:34.511Z,10.43
2023-03-28T08:57:02.284Z,9.13
2023-03-28T08:59:37.895Z,8.33
2023-03-28T09:02:20.921Z,10.37
2023-03-28T09:04:47.985Z,10.00
2023-03-28T09:07:35.142Z,8.33
2023-03-28T09:10:23.644Z,5.87
2023-03-28T09:13:20.397Z,6.80
2023-03-28T09:15:47.635Z,7.17
2023-03-28T09:18:25.415Z,6.60
2023-03-28T09:20:54.646Z,6.90
2023-03-28T09:23:21.904Z,12.37
2023-03-28T09:25:49.085Z,7.63
2023-03-28T09:28:27.473Z,12.37
2023-03-28T09:30:54.752Z,9.07
2023-03-28T09:33:27.673Z,12.37
2023-03-28T09:35:57.989Z,11.60
2023-03-28T09:38:34.509Z,13.77
2023-03-28T09:41:03.853Z,11.23
2023-03-28T09:43:48.179Z,14.33
2023-03-28T09:46:34.690Z,20.00
2023-03-28T09:49:01.578Z,16.63
2023-03-28T09:51:28.843Z,16.90
2023-03-28T09:53:56.054Z,14.90
2023-03-28T09:56:47.003Z,19.53
2023-03-28T09:59:28.879Z,20.33
2023-03-28T10:01:56.292Z,17.43
2023-03-28T10:04:29.382Z,15.57
2023-03-28T10:07:28.279Z,17.13
2023-03-28T10:09:58.653Z,19.03
2023-03-28T10:12:36.318Z,18.13
2023-03-28T10:15:07.816Z,22.10
2023-03-28T10:17:36.981Z,19.33
2023-03-28T10:20:22.427Z,18.43
2023-03-28T10:22:52.829Z,18.57
2023-03-28T10:25:45.549Z,21.67
2023-03-28T10:28:27.285Z,15.70
2023-03-28T10:30:55.486Z,10.93
2023-03-28T10:33:35.655Z,14.60
2023-03-28T10:36:09.808Z,10.57
2023-03-28T10:38:47.219Z,13.30
2023-03-28T10:41:27.636Z,9.17
2023-03-28T10:43:55.042Z,7.40
2023-03-28T10:46:25.553Z,6.00
2023-03-28T10:48:59.057Z,8.33
2023-03-28T10:51:26.317Z,18.20
2023-03-28T10:54:22.354Z,5.53
2023-03-28T10:56:53.282Z,6.90
2023-03-28T10:59:30.977Z,5.73
2023-03-28T11:02:28.190Z,6.50
2023-03-28T11:05:04.280Z,7.30
2023-03-28T11:07:31.472Z,7.17
2023-03-28T11:10:18.872Z,7.00
2023-03-28T11:13:06.828Z,8.03
2023-03-28T11:15:52.316Z,6.83
2023-03-28T11:18:35.255Z,5.00
2023-03-28T11:21:20.408Z,6.80
2023-03-28T11:24:06.258Z,8.37
2023-03-28T11:26:40.052Z,6.03
2023-03-28T11:29:08.311Z,5.70
2023-03-28T11:32:07.101Z,4.50
2023-03-28T11:34:46.250Z,4.57
2023-03-28T11:37:27.702Z,4.47
2023-03-28T11:40:18.501Z,6.63
2023-03-28T11:42:56.248Z,3.93
2023-03-28T11:45:51.919Z,4.33
2023-03-28T11:48:29.437Z,4.13
2023-03-28T11:51:29.107Z,6.80
2023-03-28T11:54:09.717Z,6.57
2023-03-28T11:56:51.887Z,6.00
2023-03-28T11:59:35.579Z,3.10
2023-03-28T12:02:14.612Z,4.70
2023-03-28T12:05:03.384Z,3.57
2023-03-28T12:07:34.875Z,3.60
2023-03-28T12:10:24.736Z,3.87
2023-03-28T12:13:03.681Z,3.47
2023-03-28T12:15:59.972Z,4.23
2023-03-28T12:18:41.351Z,5.63
2023-03-28T12:21:27.285Z,5.80
2023-03-28T12:23:54.443Z,4.70
2023-03-28T12:26:21.470Z,3.90
2023-03-28T12:28:57.403Z,3.23
2023-03-28T12:31:42.877Z,4.33
2023-03-28T12:34:27.179Z,4.67
2023-03-28T12:36:57.672Z,3.73
2023-03-28T12:39:35.439Z,5.23
2023-03-28T12:42:03.654Z,7.90
2023-03-28T12:44:36.985Z,5.23
2023-03-28T12:47:14.542Z,10.67
2023-03-28T12:49:43.444Z,4.83
2023-03-28T12:52:24.718Z,3.60
2023-03-28T12:55:01.087Z,4.87
2023-03-28T12:57:45.269Z,3.53
2023-03-28T13:00:54.372Z,4.97
2023-03-28T13:03:42.332Z,5.33
2023-03-28T13:06:20.682Z,2.90
2023-03-28T13:09:16.053Z,5.57
2023-03-28T13:12:20.495Z,4.93
2023-03-28T13:15:24.017Z,4.93
2023-03-28T13:18:32.097Z,6.50
2023-03-28T13:21:00.404Z,6.60
2023-03-28T13:23:34.562Z,3.60
2023-03-28T13:26:03.446Z,7.03
2023-03-28T13:28:32.167Z,2.90
2023-03-28T13:31:05.777Z,5.30
2023-03-28T13:33:37.261Z,5.53
2023-03-28T13:36:06.778Z,7.07
2023-03-28T13:38:45.973Z,6.13
2023-03-28T13:41:35.627Z,4.13
2023-03-28T13:44:06.425Z,3.50
2023-03-28T13:46:39.221Z,6.03
2023-03-28T13:49:13.140Z,3.13
2023-03-28T13:51:54.971Z,4.03
2023-03-28T13:54:22.236Z,3.40
2023-03-28T13:56:52.795Z,5.47
2023-03-28T13:59:32.587Z,4.30
2023-03-28T14:02:02.533Z,8.20
2023-03-28T14:04:33.631Z,2.63
2023-03-28T14:07:03.034Z,4.87
2023-03-28T14:09:29.780Z,5.33
2023-03-28T14:11:57.940Z,4.60
2023-03-28T14:14:49.868Z,4.93
2023-03-28T14:17:18.358Z,3.43
2023-03-28T14:19:56.865Z,2.60
2023-03-28T14:22:28.190Z,4.80
2023-03-28T14:25:02.621Z,4.50
2023-03-28T14:27:48.937Z,4.00
2023-03-28T14:30:23.242Z,4.43
2023-03-28T14:32:59.937Z,4.07
2023-03-28T14:35:30.947Z,4.03
2023-03-28T14:37:59.282Z,4.80
2023-03-28T14:40:26.313Z,7.00
2023-03-28T14:43:02.655Z,3.97
2023-03-28T14:45:31.614Z,3.93
2023-03-28T14:47:59.170Z,2.37
2023-03-28T14:50:30.906Z,4.70
2023-03-28T14:53:05.703Z,6.57
2023-03-28T14:55:33.363Z,3.77
2023-03-28T14:58:03.034Z,2.30
2023-03-28T15:00:41.755Z,4.93
2023-03-28T15:03:16.380Z,6.13
2023-03-28T15:05:50.886Z,4.63
2023-03-28T15:08:43.798Z,3.73
2023-03-28T15:11:15.872Z,7.03
2023-03-28T15:14:05.160Z,5.83
2023-03-28T15:16:32.402Z,5.40
2023-03-28T15:19:15.818Z,5.17
2023-03-28T15:21:42.792Z,4.27
2023-03-28T15:24:13.772Z,4.87
2023-03-28T15:26:47.546Z,4.33
2023-03-28T15:29:21.540Z,8.83
2023-03-28T15:31:50.797Z,2.70
2023-03-28T15:34:27.365Z,9.10
2023-03-28T15:37:01.951Z,7.30
2023-03-28T15:39:32.025Z,4.20
2023-03-28T15:42:23.979Z,3.57
2023-03-28T15:44:59.663Z,5.27
2023-03-28T15:47:31.353Z,13.73
2023-03-28T15:50:13.532Z,9.33
2023-03-28T15:52:43.414Z,4.60
2023-03-28T15:55:16.617Z,3.73
2023-03-28T15:57:45.922Z,6.90
2023-03-28T16:00:45.109Z,4.83
2023-03-28T16:03:21.298Z,6.03
2023-03-28T16:05:53.294Z,4.23
2023-03-28T16:08:22.132Z,4.40
2023-03-28T16:10:48.843Z,4.50
2023-03-28T16:13:17.793Z,4.13
2023-03-28T16:15:44.715Z,5.20
2023-03-28T16:18:11.637Z,7.13
2023-03-28T16:20:39.734Z,4.00
2023-03-28T16:23:07.244Z,4.70
2023-03-28T16:25:34.807Z,4.60
2023-03-28T16:28:01.673Z,4.90
2023-03-28T16:30:38.600Z,4.23
2023-03-28T16:33:06.371Z,6.10
2023-03-28T16:35:34.122Z,7.63
2023-03-28T16:38:06.210Z,6.77
2023-03-28T16:40:33.581Z,7.20
2023-03-28T16:43:00.428Z,7.50
2023-03-28T16:45:27.324Z,8.93
2023-03-28T16:47:56.427Z,10.47
2023-03-28T16:50:23.336Z,11.67
2023-03-28T16:52:50.250Z,7.23
2023-03-28T16:55:17.575Z,7.17
2023-03-28T16:57:44.497Z,6.30
2023-03-28T17:00:17.790Z,4.30
2023-03-28T17:02:46.364Z,5.33
2023-03-28T17:05:14.030Z,6.03
2023-03-28T17:07:40.960Z,5.13
2023-03-28T17:10:11.042Z,6.97
2023-03-28T17:12:37.899Z,4.20
2023-03-28T17:15:06.550Z,5.17
2023-03-28T17:17:33.479Z,8.27
2023-03-28T17:20:01.175Z,10.07
2023-03-28T17:22:28.413Z,6.67
2023-03-28T17:24:57.217Z,7.60
2023-03-28T17:27:24.613Z,13.90
2023-03-28T17:29:51.838Z,6.23
2023-03-28T17:32:18.814Z,5.87
2023-03-28T17:34:46.353Z,4.50
2023-03-28T17:37:15.820Z,5.07
2023-03-28T17:39:47.620Z,5.53
2023-03-28T17:42:14.853Z,4.33
2023-03-28T17:44:43.997Z,6.00
2023-03-28T17:47:11.261Z,3.30
2023-03-28T17:49:38.458Z,5.50
2023-03-28T17:52:10.225Z,3.70
2023-03-28T17:54:37.136Z,5.47
2023-03-28T17:57:08.063Z,3.40
2023-03-28T17:59:37.126Z,5.33
2023-03-28T18:02:06.293Z,4.67
2023-03-28T18:04:35.780Z,4.40
2023-03-28T18:07:02.600Z,4.03
2023-03-28T18:09:45.679Z,6.73
2023-03-28T18:12:13.262Z,8.70
2023-03-28T18:14:40.123Z,5.53
2023-03-28T18:17:06.984Z,3.10
2023-03-28T18:19:33.834Z,7.57
2023-03-28T18:22:03.168Z,7.23
2023-03-28T18:24:29.968Z,5.50
2023-03-28T18:27:00.095Z,6.00
2023-03-28T18:29:29.093Z,6.77
2023-03-28T18:31:55.909Z,4.70
2023-03-28T18:34:22.834Z,4.40
2023-03-28T18:36:51.367Z,5.07
2023-03-28T18:39:18.298Z,7.90
2023-03-28T18:41:47.388Z,7.53
2023-03-28T18:44:15.024Z,7.67
2023-03-28T18:46:41.772Z,6.60
2023-03-28T18:49:09.005Z,5.70
2023-03-28T18:51:38.225Z,8.27
2023-03-28T18:54:05.509Z,5.93
2023-03-28T18:56:34.805Z,6.33
2023-03-28T18:59:04.728Z,5.50
2023-03-28T19:01:32.902Z,8.97
2023-03-28T19:03:59.955Z,7.77
2023-03-28T19:06:26.894Z,6.80
2023-03-28T19:08:54.844Z,7.70
2023-03-28T19:11:23.824Z,9.53
2023-03-28T19:13:56.512Z,5.90
2023-03-28T19:16:26.300Z,8.07
2023-03-28T19:18:53.107Z,6.97
2023-03-28T19:21:20.032Z,7.40
2023-03-28T19:23:48.196Z,9.30
2023-03-28T19:26:15.535Z,10.30
2023-03-28T19:28:44.838Z,8.70
2023-03-28T19:31:12.382Z,10.00
2023-03-28T19:33:40.743Z,13.30
2023-03-28T19:36:07.793Z,10.70
2023-03-28T19:38:38.066Z,10.97
2023-03-28T19:41:10.712Z,11.43
2023-03-28T19:43:38.460Z,10.63
2023-03-28T19:46:06.874Z,13.10
2023-03-28T19:48:36.201Z,10.20
2023-03-28T19:51:03.156Z,13.73
2023-03-28T19:53:30.024Z,13.37
2023-03-28T19:55:59.100Z,12.50
2023-03-28T19:58:26.954Z,26.13
2023-03-28T20:00:58.945Z,25.87
2023-03-28T20:03:26.317Z,8.83
2023-03-28T20:05:53.561Z,17.13
2023-03-28T20:08:24.988Z,9.47
2023-03-28T20:10:52.025Z,10.03
2023-03-28T20:13:18.916Z,10.10
2023-03-28T20:15:48.332Z,10.33
2023-03-28T20:18:20.494Z,7.77
2023-03-28T20:20:55.222Z,10.20
2023-03-28T20:23:23.696Z,11.07
2023-03-28T20:25:52.099Z,9.63
2023-03-28T20:28:24.435Z,9.10
2023-03-28T20:30:52.402Z,10.33
2023-03-28T20:33:20.601Z,9.53
2023-03-28T20:35:54.635Z,9.97
2023-03-28T20:38:21.470Z,11.83
2023-03-28T20:40:51.032Z,10.33
2023-03-28T20:43:21.322Z,8.93
2023-03-28T20:45:54.914Z,10.00
2023-03-28T20:48:26.074Z,10.60
2023-03-28T20:50:55.771Z,12.03
2023-03-28T20:53:22.639Z,7.73
2023-03-28T20:55:50.293Z,9.83
2023-03-28T20:58:17.124Z,15.60
2023-03-28T21:00:46.251Z,11.40
2023-03-28T21:03:15.776Z,10.80
2023-03-28T21:05:44.715Z,10.37
2023-03-28T21:08:14.373Z,7.90
2023-03-28T21:10:42.407Z,10.47
2023-03-28T21:13:09.263Z,8.90
2023-03-28T21:15:36.194Z,12.77
2023-03-28T21:18:03.996Z,11.67
2023-03-28T21:20:30.891Z,11.57
2023-03-28T21:22:57.680Z,11.00
2023-03-28T21:25:24.505Z,9.87
2023-03-28T21:27:51.837Z,13.13
2023-03-28T21:30:19.486Z,11.57
2023-03-28T21:32:48.538Z,9.03
2023-03-28T21:35:15.757Z,10.70
2023-03-28T21:37:42.599Z,9.93
2023-03-28T21:40:09.796Z,11.63
2023-03-28T21:42:37.009Z,11.27
2023-03-28T21:45:04.492Z,9.80
2023-03-28T21:47:31.561Z,19.00
2023-03-28T21:50:00.597Z,11.20
2023-03-28T21:52:27.791Z,10.07
2023-03-28T21:54:56.749Z,14.03
2023-03-28T21:57:24.093Z,8.07
2023-03-28T21:59:50.969Z,8.50
2023-03-28T22:02:20.285Z,9.83
2023-03-28T22:04:49.379Z,7.73
2023-03-28T22:07:16.569Z,6.27
2023-03-28T22:09:44.634Z,5.93
2023-03-28T22:12:11.408Z,11.47
2023-03-28T22:14:38.199Z,9.87
2023-03-28T22:17:07.477Z,8.17
2023-03-28T22:19:34.725Z,7.13
2023-03-28T22:22:03.631Z,6.87
2023-03-28T22:24:33.191Z,5.83
2023-03-28T22:27:02.435Z,7.57
2023-03-28T22:29:29.275Z,6.57
2023-03-28T22:32:00.461Z,9.17
2023-03-28T22:34:29.121Z,7.33
2023-03-28T22:36:56.499Z,7.13
2023-03-28T22:39:27.958Z,8.47
2023-03-28T22:41:55.494Z,8.90
2023-03-28T22:44:23.022Z,8.50
2023-03-28T22:46:52.624Z,6.70
2023-03-28T22:49:22.272Z,7.37
2023-03-28T22:51:49.460Z,6.43
2023-03-28T22:54:21.078Z,9.73
2023-03-28T22:56:49.057Z,11.10
2023-03-28T22:59:18.340Z,10.97
2023-03-28T23:01:45.654Z,11.90
2023-03-28T23:04:15.574Z,12.60
2023-03-28T23:06:43.273Z,16.50
2023-03-28T23:09:10.478Z,13.73
2023-03-28T23:11:37.599Z,20.43
2023-03-28T23:14:04.816Z,20.13
2023-03-28T23:16:32.921Z,18.23
2023-03-28T23:19:00.502Z,17.73
2023-03-28T23:21:27.356Z,18.73
2023-03-28T23:23:54.582Z,14.47
2023-03-28T23:26:26.409Z,15.27
2023-03-28T23:28:53.209Z,13.37
2023-03-28T23:31:20.990Z,14.37
2023-03-28T23:33:47.829Z,13.53
2023-03-28T23:36:15.183Z,12.43
2023-03-28T23:38:42.429Z,11.17
2023-03-28T23:41:09.274Z,14.40
2023-03-28T23:43:36.130Z,12.47
2023-03-28T23:46:04.375Z,11.60
2023-03-28T23:48:32.034Z,16.20
2023-03-28T23:51:01.924Z,14.17
2023-03-28T23:53:29.335Z,18.67
2023-03-28T23:55:56.143Z,16.60
2023-03-28T23:58:22.914Z,14.60
